Val De Loire — FNVA — position and weather

sailwx.info

Track history (hours):
 
Tides and Currents Weather Stations Pressure Air Temp Water Temp Dewpoint Dewpoint Depression Visibility Wind Speed Wind Dir Waves Ship Positions

Val De Loire

Operator: Brittany Ferries

Last reported at 2006-Feb-20 12:00 UTC. Time now 2019-Oct-16 19:24 UTC.
Position N 49°48' W 001°30'.
Warning: this ship's position is years out of date!

Wind from 050 at 33 knots

Barometer 1009.3 mb
Air temperature 7.2 ° C
Dewpoint 2.9 ° C
Water temperature 9.2 ° C

Date/timePositionNaut miles runAvg speedWind from/ knotsBaromVisibWave heightAir tempDewpointWater temp
2006-Feb-20 12:00N 49°48' W 001°30'4816.0 050 / 331009.3 7.2 2.9 9.2
2006-Feb-20 09:00N 50°30' W 000°54'27 4.4 040 / 301008.4 5.9 2.4 8.4
2006-Feb-20 03:00N 50°06' W 000°36'4514.9 040 / 44997.6 6.8 5.3 8.8
2006-Feb-20 00:00N 49°24' W 000°12'39 6.5 030 / 11996.0 5.6 4.7 7.8
2006-Feb-19 18:00N 50°00' W 000°36'27 3.0 090 / 27995.0 7.2 6.1 9.1
2006-Feb-19 09:00N 49°36' W 000°18'20 3.3 100 / 25992.8 6.7 5.2 7.8
2006-Feb-19 03:00N 49°54' W 000°30'5217.2 130 / 20994.3 7.8 5.8 9.3
2006-Feb-19 00:00N 50°42' W 001°00'0 0.0 100 / 14996.2 6.3 5.7 7.4
2006-Feb-18 21:00N 50°42' W 001°00'5217.2 070 / 7996.3 4.7 3.0 7.3
2006-Feb-18 18:00N 49°54' W 000°30'13 2.1 240 / 19995.8 7.9 4.7 9.3
2006-Feb-18 12:00N 49°42' W 000°24'5618.7 220 / 24991.1 7.4 4.9 8.9
2006-Feb-18 09:00N 50°36' W 000°48'10 3.2 110 / 13990.3 6.3 4.1 7.8
2006-Feb-18 06:00N 50°42' W 001°00'3210.7 989.5 4.4 3.2 7.2
2006-Feb-18 03:00N 50°12' W 000°42'4514.9 160 / 10989.9 6.9 4.7 8.6
2006-Feb-18 00:00N 49°30' W 000°18'32 5.4 170 / 17993.0 5.1 3.3 7.8
2006-Feb-17 18:00N 50°00' W 000°36'45 3.7 260 / 35991.6 6.1 3.9 9.4
2006-Feb-17 06:00N 50°42' W 001°00'3812.6 240 / 12984.9 7.5 5.8 7.2
2006-Feb-17 03:00N 50°06' W 000°42'4615.4 210 / 30985.7 7.6 5.6 8.9
2006-Feb-17 00:00N 49°24' W 000°12'12 4.0 210 / 25989.6 7.0 3.8 7.7
2006-Feb-16 21:00N 49°12' W 000°12'5618.7 230 / 26990.8 6.3 2.9 7.4
2006-Feb-16 18:00N 50°06' W 000°36'20 3.3 270 / 29988.1 5.9 3.9 9.1
2006-Feb-16 12:00N 50°24' W 000°48'5719.1 230 / 33987.4 8.3 5.6 8.2
2006-Feb-16 09:00N 49°30' W 000°18'27 4.4 230 / 28991.0 8.0 5.6 7.7
2006-Feb-16 03:00N 49°54' W 000°36'5016.8 240 / 30991.9 8.9 7.5 9.7
2006-Feb-16 00:00N 50°42' W 001°00'0 0.0 240 / 20991.3 7.8 6.7 7.0
2006-Feb-15 21:00N 50°42' W 001°00'5719.1 240 / 23992.3 8.0 6.9 7.9
2006-Feb-15 18:00N 49°48' W 000°30'7 1.2 230 / 27997.2 8.8 7.7 9.3
2006-Feb-15 12:00N 49°42' W 000°24'5719.1 240 / 27999.4 9.6 7.7 9.4
2006-Feb-15 09:00N 50°36' W 000°54'31 5.2 250 / 30996.5 8.9 7.4 7.9
2006-Feb-15 03:00N 50°06' W 000°42'4615.4 190 / 331000.9 8.6 7.2 9.3
2006-Feb-15 00:00N 49°24' W 000°12'12 4.0 200 / 211011.1 8.2 5.8 7.8
2006-Feb-14 21:00N 49°12' W 000°12'5618.7 190 / 151015.5 6.6 3.8 7.2
2006-Feb-14 18:00N 50°06' W 000°36'24 4.1 230 / 321013.9 9.4 7.3 9.3
2006-Feb-14 12:00N 50°30' W 000°42'5618.7 220 / 301013.5 8.7 7.2 8.7
2006-Feb-14 09:00N 49°36' W 000°18'20 3.3 230 / 231015.5 7.4 5.7 7.8
2006-Feb-14 03:00N 49°54' W 000°30'53 8.9 220 / 281017.1 6.7 3.0 9.5
2006-Feb-13 21:00N 50°42' W 001°06'5317.7 200 / 151018.6 7.7 5.7 6.8
2006-Feb-13 18:00N 49°54' W 000°30'20 3.3 230 / 171020.5 8.1 5.7 9.4
2006-Feb-13 12:00N 49°36' W 000°18'5719.1 240 / 241022.2 6.9 5.4 8.3
2006-Feb-13 09:00N 50°30' W 000°48'25 4.2 240 / 171020.6 7.9 7.1 7.2
2006-Feb-13 03:00N 50°06' W 000°36'3812.6 260 / 301021.9 8.7 7.8 9.3
2006-Feb-13 00:00N 49°30' W 000°18'18 6.1 240 / 311023.1 7.3 6.1 7.6
2006-Feb-12 21:00N 49°12' W 000°12'5618.7 240 / 141024.2 7.0 4.3 7.0
2006-Feb-12 18:00N 50°06' W 000°36'27 4.4 260 / 311022.3 9.0 7.8 9.3
2006-Feb-12 12:00N 50°30' W 000°54'6020.1 220 / 311024.1 7.4 6.5 8.3
2006-Feb-12 09:00N 49°36' W 000°12'17 2.8 240 / 191027.8 5.1 1.4 7.7
2006-Feb-12 03:00N 49°48' W 000°30'5217.2 230 / 191028.3 5.7-0.1 9.3
2006-Feb-12 00:00N 50°36' W 001°00'6 2.0 220 / 191027.8 6.0 1.3 6.6
2006-Feb-11 21:00N 50°42' W 001°00'4615.4 200 / 71028.1 4.9 1.2 6.1
2006-Feb-11 18:00N 50°00' W 000°30'18 3.1 250 / 31028.3 5.5 0.3 9.5
2006-Feb-11 12:00N 49°42' W 000°24'5217.2 190 / 91028.7 5.0 1.8 8.7
2006-Feb-11 09:00N 50°30' W 000°54'25 4.2 080 / 111027.8 5.1 3.6 8.0
2006-Feb-11 03:00N 50°06' W 000°42'3913.1 260 / 21027.5 5.6-0.7 9.3
2006-Feb-11 00:00N 49°30' W 000°18'38 6.3 080 / 51027.5 4.2 1.1 7.2
2006-Feb-10 18:00N 50°06' W 000°36'   060 / 61025.9 5.4-1.5 9.3
Track history (hours):
 
Tides and Currents Weather Stations Pressure Air Temp Water Temp Dewpoint Dewpoint Depression Visibility Wind Speed Wind Dir Waves Ship Positions

Val De Loire

Operator: Brittany Ferries

Last reported at 2006-Feb-20 12:00 UTC. Time now 2019-Oct-16 19:24 UTC.
Position N 49°48' W 001°30'.
Warning: this ship's position is years out of date!

Wind from 050 at 33 knots

Barometer 1009.3 mb
Air temperature 7.2 ° C
Dewpoint 2.9 ° C
Water temperature 9.2 ° C

Date/timePositionNaut miles runAvg speedWind from/ knotsBaromVisibWave heightAir tempDewpointWater temp
2006-Feb-20 12:00N 49°48' W 001°30'4816.0 050 / 331009.3 7.2 2.9 9.2
2006-Feb-20 09:00N 50°30' W 000°54'27 4.4 040 / 301008.4 5.9 2.4 8.4
2006-Feb-20 03:00N 50°06' W 000°36'4514.9 040 / 44997.6 6.8 5.3 8.8
2006-Feb-20 00:00N 49°24' W 000°12'39 6.5 030 / 11996.0 5.6 4.7 7.8
2006-Feb-19 18:00N 50°00' W 000°36'27 3.0 090 / 27995.0 7.2 6.1 9.1
2006-Feb-19 09:00N 49°36' W 000°18'20 3.3 100 / 25992.8 6.7 5.2 7.8
2006-Feb-19 03:00N 49°54' W 000°30'5217.2 130 / 20994.3 7.8 5.8 9.3
2006-Feb-19 00:00N 50°42' W 001°00'0 0.0 100 / 14996.2 6.3 5.7 7.4
2006-Feb-18 21:00N 50°42' W 001°00'5217.2 070 / 7996.3 4.7 3.0 7.3
2006-Feb-18 18:00N 49°54' W 000°30'13 2.1 240 / 19995.8 7.9 4.7 9.3
2006-Feb-18 12:00N 49°42' W 000°24'5618.7 220 / 24991.1 7.4 4.9 8.9
2006-Feb-18 09:00N 50°36' W 000°48'10 3.2 110 / 13990.3 6.3 4.1 7.8
2006-Feb-18 06:00N 50°42' W 001°00'3210.7 989.5 4.4 3.2 7.2
2006-Feb-18 03:00N 50°12' W 000°42'4514.9 160 / 10989.9 6.9 4.7 8.6
2006-Feb-18 00:00N 49°30' W 000°18'32 5.4 170 / 17993.0 5.1 3.3 7.8
2006-Feb-17 18:00N 50°00' W 000°36'45 3.7 260 / 35991.6 6.1 3.9 9.4
2006-Feb-17 06:00N 50°42' W 001°00'3812.6 240 / 12984.9 7.5 5.8 7.2
2006-Feb-17 03:00N 50°06' W 000°42'4615.4 210 / 30985.7 7.6 5.6 8.9
2006-Feb-17 00:00N 49°24' W 000°12'12 4.0 210 / 25989.6 7.0 3.8 7.7
2006-Feb-16 21:00N 49°12' W 000°12'5618.7 230 / 26990.8 6.3 2.9 7.4
2006-Feb-16 18:00N 50°06' W 000°36'20 3.3 270 / 29988.1 5.9 3.9 9.1
2006-Feb-16 12:00N 50°24' W 000°48'5719.1 230 / 33987.4 8.3 5.6 8.2
2006-Feb-16 09:00N 49°30' W 000°18'27 4.4 230 / 28991.0 8.0 5.6 7.7
2006-Feb-16 03:00N 49°54' W 000°36'5016.8 240 / 30991.9 8.9 7.5 9.7
2006-Feb-16 00:00N 50°42' W 001°00'0 0.0 240 / 20991.3 7.8 6.7 7.0
2006-Feb-15 21:00N 50°42' W 001°00'5719.1 240 / 23992.3 8.0 6.9 7.9
2006-Feb-15 18:00N 49°48' W 000°30'7 1.2 230 / 27997.2 8.8 7.7 9.3
2006-Feb-15 12:00N 49°42' W 000°24'5719.1 240 / 27999.4 9.6 7.7 9.4
2006-Feb-15 09:00N 50°36' W 000°54'31 5.2 250 / 30996.5 8.9 7.4 7.9
2006-Feb-15 03:00N 50°06' W 000°42'4615.4 190 / 331000.9 8.6 7.2 9.3
2006-Feb-15 00:00N 49°24' W 000°12'12 4.0 200 / 211011.1 8.2 5.8 7.8
2006-Feb-14 21:00N 49°12' W 000°12'5618.7 190 / 151015.5 6.6 3.8 7.2
2006-Feb-14 18:00N 50°06' W 000°36'24 4.1 230 / 321013.9 9.4 7.3 9.3
2006-Feb-14 12:00N 50°30' W 000°42'5618.7 220 / 301013.5 8.7 7.2 8.7
2006-Feb-14 09:00N 49°36' W 000°18'20 3.3 230 / 231015.5 7.4 5.7 7.8
2006-Feb-14 03:00N 49°54' W 000°30'53 8.9 220 / 281017.1 6.7 3.0 9.5
2006-Feb-13 21:00N 50°42' W 001°06'5317.7 200 / 151018.6 7.7 5.7 6.8
2006-Feb-13 18:00N 49°54' W 000°30'20 3.3 230 / 171020.5 8.1 5.7 9.4
2006-Feb-13 12:00N 49°36' W 000°18'5719.1 240 / 241022.2 6.9 5.4 8.3
2006-Feb-13 09:00N 50°30' W 000°48'25 4.2 240 / 171020.6 7.9 7.1 7.2
2006-Feb-13 03:00N 50°06' W 000°36'3812.6 260 / 301021.9 8.7 7.8 9.3
2006-Feb-13 00:00N 49°30' W 000°18'18 6.1 240 / 311023.1 7.3 6.1 7.6
2006-Feb-12 21:00N 49°12' W 000°12'5618.7 240 / 141024.2 7.0 4.3 7.0
2006-Feb-12 18:00N 50°06' W 000°36'27 4.4 260 / 311022.3 9.0 7.8 9.3
2006-Feb-12 12:00N 50°30' W 000°54'6020.1 220 / 311024.1 7.4 6.5 8.3
2006-Feb-12 09:00N 49°36' W 000°12'17 2.8 240 / 191027.8 5.1 1.4 7.7
2006-Feb-12 03:00N 49°48' W 000°30'5217.2 230 / 191028.3 5.7-0.1 9.3
2006-Feb-12 00:00N 50°36' W 001°00'6 2.0 220 / 191027.8 6.0 1.3 6.6
2006-Feb-11 21:00N 50°42' W 001°00'4615.4 200 / 71028.1 4.9 1.2 6.1
2006-Feb-11 18:00N 50°00' W 000°30'18 3.1 250 / 31028.3 5.5 0.3 9.5
2006-Feb-11 12:00N 49°42' W 000°24'5217.2 190 / 91028.7 5.0 1.8 8.7
2006-Feb-11 09:00N 50°30' W 000°54'25 4.2 080 / 111027.8 5.1 3.6 8.0
2006-Feb-11 03:00N 50°06' W 000°42'3913.1 260 / 21027.5 5.6-0.7 9.3
2006-Feb-11 00:00N 49°30' W 000°18'38 6.3 080 / 51027.5 4.2 1.1 7.2
2006-Feb-10 18:00N 50°06' W 000°36'   060 / 61025.9 5.4-1.5 9.3

Dump ship's entire track history